»·PEaware :: N417MA KAVX-KPOC

N417MA :: KAVX-KPOC

FLIGHT INFORMATION

Flight Status: Arrived
Operator: Privately registered:
United States
More flights under this callsign
Pilot: Michael A. (40437)
Aircraft: CIRRUS SR-22
(SR22)
More flights by this aircraft type
Origin: KAVX Catalina
United States
Destination: KPOC Brackett
United States
More flights between these airports :: More routes between these airports
Route: SXC V21 SLI V8 POXKU V363 POM
File this flight plan on PilotEdge
Remarks:
Altitude:
(Current/Filed)
5,000ft
Speed:
(Current/Filed)
150kts
Departed: 22-Oct-23 04:46 PM
Arrived: 22-Oct-23 05:44 PM
Distance/Time
Traveled:
52nm/0:58
Distance/Time
To Go:
Arrived

Flight Plot

Page will automatically refresh every two minutes.

Flight plan parsing failed; only flown route is shown


Map Options




Map Legend


Flown Route
Filed Route
Departure Airport
Arrival Airport
Navaid (VOR, NDB)
Fix

Horizontal Profiles

Position Reports

Time Latitude Longitude Heading Altitude Ground
Speed
22-Oct-23 16:25 33.403386 -118.416975 217 1587ft 0kts
22-Oct-23 16:26 33.403386 -118.416975 217 1587ft 0kts
22-Oct-23 16:27 33.403386 -118.416975 217 1587ft 0kts
22-Oct-23 16:28 33.403386 -118.416975 217 1587ft 0kts
22-Oct-23 16:29 33.403386 -118.416975 217 1587ft 0kts
22-Oct-23 16:30 33.403386 -118.416975 217 1587ft 0kts
22-Oct-23 16:31 33.403386 -118.416975 217 1587ft 0kts
22-Oct-23 16:32 33.403386 -118.416975 217 1587ft 0kts
22-Oct-23 16:33 33.403386 -118.416975 217 1587ft 0kts
22-Oct-23 16:34 33.403386 -118.416975 217 1587ft 0kts
22-Oct-23 16:35 33.403386 -118.416975 217 1587ft 0kts
22-Oct-23 16:36 33.403386 -118.416975 217 1587ft 0kts
22-Oct-23 16:37 33.403386 -118.416975 217 1587ft 0kts
22-Oct-23 16:38 33.403386 -118.416975 217 1587ft 0kts
22-Oct-23 16:39 33.403386 -118.416975 217 1587ft 0kts
22-Oct-23 16:40 33.403386 -118.416975 217 1587ft 0kts
22-Oct-23 16:41 33.403324 -118.417909 236 1588ft 13kts
22-Oct-23 16:42 33.402201 -118.419841 268 1607ft 0kts
22-Oct-23 16:43 33.402201 -118.419841 268 1607ft 0kts
22-Oct-23 16:44 33.402324 -118.419983 322 1608ft 0kts
22-Oct-23 16:45 33.408538 -118.408920 65 1587ft 119kts
22-Oct-23 16:46 33.396080 -118.391853 204 2612ft 124kts
22-Oct-23 16:47 33.361798 -118.402802 206 3596ft 129kts
22-Oct-23 16:48 33.352609 -118.431964 277 4802ft 107kts
22-Oct-23 16:49 33.376497 -118.443611 39 5009ft 172kts
22-Oct-23 16:50 33.412718 -118.408371 30 4998ft 166kts
22-Oct-23 17:01 33.403889 -118.415081 345 1582ft 0kts
22-Oct-23 17:02 33.403889 -118.415081 345 1582ft 0kts
22-Oct-23 17:03 33.403889 -118.415081 345 1582ft 0kts
22-Oct-23 17:04 33.403889 -118.415081 345 1582ft 0kts
22-Oct-23 17:05 33.403889 -118.415081 345 1582ft 0kts
22-Oct-23 17:06 33.404239 -118.415018 356 1578ft 0kts
22-Oct-23 17:07 33.405273 -118.414643 54 1570ft 9kts
22-Oct-23 17:08 33.405273 -118.414643 54 1570ft 9kts
22-Oct-23 17:09 33.407225 -118.411469 50 1552ft 0kts
22-Oct-23 17:10 33.407225 -118.411469 50 1552ft 0kts
22-Oct-23 17:11 33.400614 -118.422019 233 1857ft 93kts
22-Oct-23 17:12 33.377386 -118.444027 199 3346ft 131kts
22-Oct-23 17:13 33.377317 -118.410878 43 4635ft 138kts
22-Oct-23 17:14 33.411105 -118.387868 25 5011ft 166kts
22-Oct-23 17:15 33.449465 -118.353557 31 5007ft 173kts
22-Oct-23 17:16 33.488286 -118.319149 30 5004ft 173kts
22-Oct-23 17:17 33.526735 -118.284705 31 5020ft 172kts
22-Oct-23 17:18 33.565414 -118.250250 32 5015ft 173kts
22-Oct-23 17:19 33.604645 -118.215058 31 4995ft 177kts
22-Oct-23 17:20 33.644252 -118.179721 32 4996ft 178kts
22-Oct-23 17:21 33.683888 -118.144019 32 4973ft 178kts
22-Oct-23 17:22 33.723767 -118.108354 32 4972ft 178kts
22-Oct-23 17:23 33.763308 -118.072711 33 4966ft 177kts
22-Oct-23 17:24 33.790691 -118.025098 69 4965ft 183kts
22-Oct-23 17:25 33.806199 -117.966894 71 4985ft 182kts
22-Oct-23 17:26 33.821169 -117.908522 71 4987ft 182kts
22-Oct-23 17:27 33.836247 -117.850291 71 4986ft 182kts
22-Oct-23 17:28 33.853953 -117.793726 41 4981ft 179kts
22-Oct-23 17:29 33.899136 -117.782153 358 4993ft 170kts
22-Oct-23 17:30 33.946816 -117.782127 355 4996ft 172kts
22-Oct-23 17:31 33.978044 -117.742034 60 5003ft 179kts
22-Oct-23 17:32 34.000804 -117.688578 61 5008ft 180kts
22-Oct-23 17:33 34.024234 -117.634605 61 4997ft 181kts
22-Oct-23 17:34 34.033693 -117.577325 90 4992ft 178kts
22-Oct-23 17:35 34.035859 -117.517741 63 4983ft 180kts
22-Oct-23 17:36 34.074233 -117.521496 286 4531ft 160kts
22-Oct-23 17:37 34.081685 -117.572823 271 4029ft 150kts
22-Oct-23 17:38 34.083722 -117.618472 273 3983ft 129kts
22-Oct-23 17:40 34.085398 -117.663087 275 3492ft 139kts
22-Oct-23 17:41 34.088046 -117.708966 271 2490ft 132kts
22-Oct-23 17:42 34.089953 -117.747496 269 1624ft 95kts
22-Oct-23 17:43 34.090970 -117.774797 268 1071ft 80kts
22-Oct-23 17:44 34.091169 -117.786864 133 986ft 11kts
22-Oct-23 17:45 34.090935 -117.786783 166 988ft 4kts
22-Oct-23 17:46 34.090217 -117.782471 90 998ft 0kts

Navigation Log

Ident Type
Flight plan parsing failed, navigation log unavailable